Home > Products > Valid Products > MTR

000
SAUS43 KBIS 202154
MTRN60
METAR KN60 202152Z AUTO 31023G30KT 22/02 A2999 RMK AO1 PK WND
32036/2057 SLP152 T02170022





000
SAUS43 KBIS 202053
MTRN60
METAR KN60 202052Z AUTO 31020G35KT 22/03 A2998 RMK AO1 PK WND
34037/2026 SLP151 T02220033 51009





000
SAUS43 KBIS 201954
MTRN60
METAR KN60 201952Z AUTO 32020G35KT 21/03 A2997 RMK AO1 PK WND
32037/1902 SLP147 T02110028





000
SAUS43 KBIS 201853
MTRN60
METAR KN60 201852Z AUTO 32025G37KT 22/06 A2996 RMK AO1 PK WND
32037/1846 SLP144 T02170056





000
SAUS43 KBIS 201754
MTRN60
METAR KN60 201752Z AUTO 32022G35KT 21/08 A2995 RMK AO1 PK WND
33036/1740 SLP141 T02060083 10206 20117 53020





000
SAUS43 KBIS 201654
MTRN60
METAR KN60 201652Z AUTO 31020G26KT 18/11 A2993 RMK AO1 PK WND
32028/1626 SLP135 T01780106





000
SAUS43 KBIS 201554
MTRN60
METAR KN60 201552Z AUTO 31007KT 15/12 A2988 RMK AO1 SLP120 T01500122





000
SAUS43 KBIS 201453
MTRN60
METAR KN60 201452Z AUTO 34019G29KT 14/12 A2989 RMK AO1 PK WND
32029/1447 SLP121 T01440122 53015





000
SAUS43 KBIS 201354
MTRN60
METAR KN60 201352Z AUTO 26005KT 14/13 A2984 RMK AO1 SLP104 T01440133





000
SAUS43 KBIS 201253
MTRN60
METAR KN60 201252Z AUTO 24004KT 12/11 A2985 RMK AO1 SLP107 T01170111





000
SAUS43 KBIS 201154
MTRN60
METAR KN60 201152Z AUTO 25003KT 12/11 A2984 RMK AO1 SLP102 70001
T01220111 10133 20100 55000





000
SAUS43 KBIS 201054
MTRN60
METAR KN60 201052Z AUTO 26004KT 11/10 A2984 RMK AO1 SLP101 T01060100





000
SAUS43 KBIS 200954
MTRN60
METAR KN60 200952Z AUTO 27004KT 11/10 A2984 RMK AO1 SLP100 T01110100





000
SAUS43 KBIS 200854
MTRN60
METAR KN60 200852Z AUTO 00000KT 10/09 A2984 RMK AO1 SLP100 T01000094
51009





000
SAUS43 KBIS 200754
MTRN60
METAR KN60 200752Z AUTO 29007KT 13/11 A2984 RMK AO1 SLP097 T01280111





000
SAUS43 KBIS 200653
MTRN60
METAR KN60 200652Z AUTO 28009KT 13/11 A2982 RMK AO1 SLP092 T01330111





000
SAUS43 KBIS 200554
MTRN60
METAR KN60 200552Z AUTO 28006KT 12/11 A2981 RMK AO1 SLP090 T01170106
10233 20111 402830111 51006





000
SAUS43 KBIS 200453
MTRN60
METAR KN60 200452Z AUTO 32006KT 12/11 A2981 RMK AO1 SLP089 T01220106





000
SAUS43 KBIS 200354
MTRN60
METAR KN60 200352Z AUTO 33007KT 12/10 A2981 RMK AO1 SLP091 T01170100





000
SAUS43 KBIS 200254
MTRN60
METAR KN60 200252Z AUTO 32007KT 14/11 A2979 RMK AO1 SLP086 T01390111
51029





000
SAUS43 KBIS 200154
MTRN60
METAR KN60 200152Z AUTO 31005KT 16/12 A2976 RMK AO1 SLP074 T01610117





000
SAUS43 KBIS 200053
MTRN60
METAR KN60 200052Z AUTO 31006KT 19/13 A2973 RMK AO1 SLP064 T01890133





000
SAUS43 KBIS 192354
MTRN60
METAR KN60 192352Z AUTO 33015G20KT 23/13 A2970 RMK AO1 PK WND
31027/2255 SLP050 T02330128 10283 20233 51029





000
SAUS43 KBIS 192253
MTRN60
METAR KN60 192252Z AUTO 31018G32KT 25/12 A2967 RMK AO1 PK WND
32034/2227 SLP039 T02500117





000
SAUS43 KBIS 192154
MTRN60
METAR KN60 192152Z AUTO 31021G32KT 26/10 A2964 RMK AO1 PK WND
28033/2109 SLP027 T02610100





000
SAUS43 KBIS 192053
MTRN60
METAR KN60 192052Z AUTO 29019G31KT 28/09 A2961 RMK AO1 PK WND
30034/2031 SLP016 T02780094 55001





000
SAUS43 KBIS 191954
MTRN60
METAR KN60 191952Z AUTO 27019G29KT 28/09 A2960 RMK AO1 PK WND
28032/1912 SLP011 T02780089





000
SAUS43 KBIS 191853
MTRN60
METAR KN60 191852Z AUTO 28018G27KT 28/09 A2961 RMK AO1 PK WND
29032/1820 SLP014 T02780094





000
SAUS43 KBIS 191754
MTRN60
METAR KN60 191752Z AUTO 29013G24KT 26/11 A2961 RMK AO1 SLP016 60001
T02610106 10261 20172 51004





000
SAUS43 KBIS 191653
MTRN60
METAR KN60 191652Z AUTO 30016G22KT 25/11 A2961 RMK AO1 SLP016
T02500106





000
SAUS43 KBIS 191554
MTRN60
METAR KN60 191552Z AUTO 29013G19KT 23/12 A2961 RMK AO1 SLP018
T02280117





000
SAUS43 KBIS 191454
MTRN60
METAR KN60 191452Z AUTO 28010KT 19/14 A2960 RMK AO1 SLP016 60001
T01940144 53009





000
SAUS43 KBIS 191353
MTRN60
METAR KN60 191352Z AUTO 27006KT 18/14 A2958 RMK AO1 SLP010 P0001
T01780144





000
SAUS43 KBIS 191253
MTRN60
METAR KN60 191252Z AUTO 25006KT 18/14 A2958 RMK AO1 SLP008 T01780139





000
SAUS43 KBIS 191154
MTRN60
METAR KN60 191152Z AUTO 28003KT 18/14 A2957 RMK AO1 SLP006 T01780144
10200 20156 52003





000
SAUS43 KBIS 191054
MTRN60
METAR KN60 191052Z AUTO 20003KT 17/14 A2957 RMK AO1 SLP007 T01670144





000
SAUS43 KBIS 190954
MTRN60
METAR KN60 190952Z AUTO 20006KT 17/14 A2956 RMK AO1 SLP001 T01670144





000
SAUS43 KBIS 190853
MTRN60
METAR KN60 190852Z AUTO 24005KT 17/15 A2956 RMK AO1 SLP002 T01720150
56020





000
SAUS43 KBIS 190754
MTRN60
METAR KN60 190752Z AUTO 22006KT 19/17 A2958 RMK AO1 SLP006 T01890172





000
SAUS43 KBIS 190653
MTRN60
METAR KN60 190652Z AUTO 22007KT 19/18 A2960 RMK AO1 SLP013 T01890178





000
SAUS43 KBIS 190554
MTRN60
METAR KN60 190552Z AUTO 22008KT 20/18 A2962 RMK AO1 SLP023 T02000183
10233 20189 402560106 56005





000
SAUS43 KBIS 190454
MTRN60
METAR KN60 190452Z AUTO 23008KT 21/18 A2962 RMK AO1 SLP023 T02060183





000
SAUS43 KBIS 190354
MTRN60
METAR KN60 190352Z AUTO 21006KT 21/18 A2963 RMK AO1 SLP027 T02110183





000
SAUS43 KBIS 190254
MTRN60
METAR KN60 190252Z AUTO 26008KT 22/18 A2964 RMK AO1 SLP031 T02170178
55000





000
SAUS43 KBIS 190154
MTRN60
METAR KN60 190152Z AUTO 20008KT 22/18 A2960 RMK AO1 SLP018 T02170178





000
SAUS43 KBIS 190053
MTRN60
METAR KN60 190052Z AUTO 20011KT 23/18 A2963 RMK AO1 SLP030 T02280178





000
SAUS43 KBIS 182354
MTRN60
METAR KN60 182352Z AUTO 19009KT 23/18 A2964 RMK AO1 SLP033 T02330183
10256 20222 56015





000
SAUS43 KBIS 182253
MTRN60
METAR KN60 182252Z AUTO 20009KT 24/18 A2965 RMK AO1 SLP036 T02440183





000
SAUS43 KBIS 182154
MTRN60
METAR KN60 182152Z AUTO 20012KT 25/18 A2967 RMK AO1 SLP042 T02500183





000
SAUS43 KBIS 182054
MTRN60
METAR KN60 182052Z AUTO 19010KT 25/18 A2969 RMK AO1 SLP049 T02500178
56025





000
SAUS43 KBIS 181954
MTRN60
METAR KN60 181952Z AUTO 18013G19KT 24/17 A2971 RMK AO1 SLP056
T02440172





000
SAUS43 KBIS 181853
MTRN60
METAR KN60 181852Z AUTO 18012G20KT 24/17 A2974 RMK AO1 SLP066
T02390167





000
SAUS43 KBIS 181754
MTRN60
METAR KN60 181752Z AUTO 17012G18KT 22/15 A2977 RMK AO1 SLP077
T02170150 10228 20106 56020





000
SAUS43 KBIS 181653
MTRN60
METAR KN60 181652Z AUTO 17012G17KT 21/14 A2978 RMK AO1 SLP082
T02110139





000
SAUS43 KBIS 181554
MTRN60
METAR KN60 181552Z AUTO 17011G18KT 18/12 A2981 RMK AO1 SLP094
T01830122





000
SAUS43 KBIS 181453
MTRN60
METAR KN60 181452Z AUTO 16006KT 16/11 A2983 RMK AO1 SLP101 T01560111
58016





000
SAUS43 KBIS 181354
MTRN60
METAR KN60 181352Z AUTO 15007KT 13/11 A2985 RMK AO1 SLP107 T01330106





000
SAUS43 KBIS 181253
MTRN60
METAR KN60 181252Z AUTO 14008KT 11/09 A2987 RMK AO1 SLP115 T01110094





000
SAUS43 KBIS 181154
MTRN60
METAR KN60 181152Z AUTO 14006KT 11/09 A2988 RMK AO1 SLP118 T01060094
10117 20106 56016





000
SAUS43 KBIS 181053
MTRN60
METAR KN60 181052Z AUTO 15009KT 11/09 A2989 RMK AO1 SLP120 T01110094





000
SAUS43 KBIS 180954
MTRN60
METAR KN60 180952Z AUTO 14008KT 11/09 A2991 RMK AO1 SLP126 T01110094





000
SAUS43 KBIS 180853
MTRN60
METAR KN60 180852Z AUTO 14006KT 11/09 A2993 RMK AO1 SLP132 T01060094
56013





000
SAUS43 KBIS 180754
MTRN60
METAR KN60 180752Z AUTO 13007KT 11/10 A2994 RMK AO1 SLP136 T01110100





000
SAUS43 KBIS 180653
MTRN60
METAR KN60 180652Z AUTO 13006KT 11/11 A2995 RMK AO1 SLP140 T01110106





000
SAUS43 KBIS 180554
MTRN60
METAR KN60 180552Z AUTO 14006KT 12/11 A2997 RMK AO1 SLP146 T01170106
10206 20117 402330033 56001





000
SAUS43 KBIS 180454
MTRN60
METAR KN60 180452Z AUTO 11007KT 12/11 A2997 RMK AO1 SLP147 T01220111





000
SAUS43 KBIS 180354
MTRN60
METAR KN60 180352Z AUTO 11008KT 13/11 A2997 RMK AO1 SLP149 T01330111





000
SAUS43 KBIS 180253
MTRN60
METAR KN60 180252Z AUTO 10007KT 13/11 A2997 RMK AO1 SLP151 T01330106
53005





000
SAUS43 KBIS 180154
MTRN60
METAR KN60 180152Z AUTO 09010KT 15/11 A2997 RMK AO1 SLP152 T01500106





000
SAUS43 KBIS 180053
MTRN60
METAR KN60 180052Z AUTO 09007KT 17/09 A2996 RMK AO1 SLP151 T01670094





000
SAUS43 KBIS 172354
MTRN60
METAR KN60 172352Z AUTO 11007KT 21/08 A2995 RMK AO1 SLP148 T02060078
10233 20206 56006





000
SAUS43 KBIS 172254
MTRN60
METAR KN60 172252Z AUTO 10008KT 23/07 A2996 RMK AO1 SLP146 T02280067





    US Dept of Commerce
    National Oceanic and Atmospheric Administration
    National Weather Service
    1325 East West Highway
    Silver Spring, MD 20910
    Page Author: NWS Internet Services Team
Disclaimer
Information Quality
Credits
Glossary
Privacy Policy
Freedom of Information Act (FOIA)
About Us
Career Opportunities